VTBS Airport Information

Runway Information
Runway 01L Length 12139 ft width 197 ft
Elevation 0 ft Threshold 0 ft Heading 14
Runway 19R Length 12139 ft Width 197 ft
Elevation 0 ft Threshold 0 ft Heading 194
Runway 01R Length 13123 ft width 197 ft
Elevation 0 ft Threshold 0 ft Heading 14
Runway 19L Length 13123 ft Width 197 ft
Elevation 0 ft Threshold 0 ft Heading 194
Airport Frequencies
Type ATIS Name Frequency 127.8 MHZ
Type GROUND (EA Name Frequency 121.65 MHZ
Type GROUND (MA Name Frequency 121.75 MHZ
Type GROUND (WE Name Frequency 121.95 MHZ
Type TOWER (01L Name Frequency 119 MHZ
Type TOWER (01R Name Frequency 118.2 MHZ
Airport Navaids
Type VOR-DME Name Suvarnabhumi Intl Frequency 111400 KHZ
Airport Weather Information & NOTAM
ADDS - METARS form results

(0237 UTC 22 January 2019)
Data provider http://aviationweather.gov/metar/data/
 
METAR text: VTBS 220230Z 10010KT 040V130 CAVOK 27/18 Q1016 NOSIG
Conditions at: VTBS (CHON BURI/SATTAH, TH) observed 0230 UTC 22 January 2019
Temperature: 27.0°C (81°F)
Dewpoint: 18.0°C (64°F) [RH = 58%]
Pressure (altimeter): 30.00 inches Hg (1016.0 mb)
Winds: from the E (100 degrees) at 12 MPH (10 knots; 5.1 m/s)
Visibility: 6 or more miles (10+ km)
Ceiling: ceiling and visibility are OK
Clouds: unknown
Weather: no significant weather observed at this time

METAR text: VTBS 220200Z 09009KT 040V130 CAVOK 27/18 Q1016 NOSIG
Conditions at: VTBS (CHON BURI/SATTAH, TH) observed 0200 UTC 22 January 2019
Temperature: 27.0°C (81°F)
Dewpoint: 18.0°C (64°F) [RH = 58%]
Pressure (altimeter): 30.00 inches Hg (1016.0 mb)
Winds: from the E (90 degrees) at 10 MPH (9 knots; 4.6 m/s)
Visibility: 6 or more miles (10+ km)
Ceiling: ceiling and visibility are OK
Clouds: unknown
Weather: no significant weather observed at this time

Forecast for: VTBS (CHON BURI/SATTAH, TH)
Text: TAF VTBS 212300Z 2200/2306 08005KT 3000 BR FEW030
Forecast period: 0000 to 0200 UTC 22 January 2019
Forecast type: FROM: standard forecast or significant change
Winds: from the E (80 degrees) at 6 MPH (5 knots; 2.6 m/s)
Visibility: 1.86 miles (2.99 km)
Ceiling: at least 12,000 feet AGL
Clouds: few clouds at 3000 feet AGL
Weather: BR  (mist)
Text: BECMG 2202/2204 9000 NSW
Forecast period: 0200 UTC 22 January 2019 to 0600 UTC 23 January 2019
Forecast type: BECOMING: Conditions expected to become as follows by 0400 UTC 22 January 2019
Winds: from the E (80 degrees) at 6 MPH (5 knots; 2.6 m/s)
Visibility: 6 miles (9 km)
Ceiling: at least 12,000 feet AGL
Clouds: few clouds at 3000 feet AGL
Weather: NSW  (no significant weather)